createdAt,value
2019-02-09T00:01:24.918Z,14.50
2019-02-09T00:03:54.283Z,13.20
2019-02-09T00:06:23.669Z,13.83
2019-02-09T00:08:53.055Z,12.20
2019-02-09T00:11:22.395Z,11.83
2019-02-09T00:13:51.924Z,12.17
2019-02-09T00:16:21.380Z,10.97
2019-02-09T00:18:50.758Z,10.63
2019-02-09T00:21:20.247Z,10.97
2019-02-09T00:23:49.673Z,12.23
2019-02-09T00:26:38.543Z,11.17
2019-02-09T00:29:09.663Z,12.60
2019-02-09T00:31:39.122Z,12.07
2019-02-09T00:34:08.498Z,12.30
2019-02-09T00:36:37.957Z,11.97
2019-02-09T00:39:08.575Z,13.17
2019-02-09T00:41:37.934Z,13.20
2019-02-09T00:44:07.299Z,13.47
2019-02-09T00:46:36.677Z,12.97
2019-02-09T00:49:06.091Z,12.53
2019-02-09T00:51:35.538Z,12.17
2019-02-09T00:54:04.948Z,12.27
2019-02-09T00:56:34.292Z,11.93
2019-02-09T00:59:03.706Z,12.33
2019-02-09T01:01:34.318Z,11.50
2019-02-09T01:04:03.838Z,12.53
2019-02-09T01:06:33.278Z,12.80
2019-02-09T01:09:02.674Z,12.50
2019-02-09T01:11:32.077Z,13.93
2019-02-09T01:14:01.520Z,14.23
2019-02-09T01:16:30.985Z,13.57
2019-02-09T01:19:00.369Z,12.63
2019-02-09T01:21:29.862Z,12.67
2019-02-09T01:23:59.604Z,12.30
2019-02-09T01:26:29.520Z,11.80
2019-02-09T01:28:59.014Z,11.83
2019-02-09T01:31:28.340Z,11.57
2019-02-09T01:33:57.746Z,10.43
2019-02-09T01:36:27.191Z,9.57
2019-02-09T01:38:56.540Z,9.37
2019-02-09T01:41:25.964Z,9.77
2019-02-09T01:43:55.397Z,9.30
2019-02-09T01:46:24.774Z,9.57
2019-02-09T01:48:54.229Z,9.50
2019-02-09T01:51:23.742Z,8.70
2019-02-09T01:53:53.105Z,8.27
2019-02-09T01:56:22.455Z,7.77
2019-02-09T01:58:51.963Z,7.50
2019-02-09T02:01:21.495Z,8.00
2019-02-09T02:03:50.844Z,7.10
2019-02-09T02:06:20.325Z,7.27
2019-02-09T02:08:49.757Z,8.07
2019-02-09T02:11:19.141Z,7.47
2019-02-09T02:13:48.546Z,8.30
2019-02-09T02:16:17.958Z,7.60
2019-02-09T02:18:47.372Z,8.43
2019-02-09T02:21:16.755Z,7.73
2019-02-09T02:23:46.104Z,7.13
2019-02-09T02:26:15.459Z,7.30
2019-02-09T02:28:44.851Z,8.33
2019-02-09T02:31:14.199Z,7.47
2019-02-09T02:33:43.594Z,6.87
2019-02-09T02:36:13.038Z,7.77
2019-02-09T02:38:42.400Z,7.57
2019-02-09T02:41:11.911Z,7.57
2019-02-09T02:43:41.310Z,7.20
2019-02-09T02:46:10.819Z,7.60
2019-02-09T02:48:40.229Z,7.60
2019-02-09T02:51:09.722Z,7.43
2019-02-09T02:53:39.054Z,7.40
2019-02-09T02:56:08.491Z,7.80
2019-02-09T02:58:37.890Z,7.03
2019-02-09T03:01:07.205Z,7.40
2019-02-09T03:03:36.634Z,8.23
2019-02-09T03:06:06.107Z,7.87
2019-02-09T03:08:35.454Z,8.10
2019-02-09T03:11:04.966Z,8.30
2019-02-09T03:13:34.364Z,8.20
2019-02-09T03:16:03.791Z,8.23
2019-02-09T03:18:33.189Z,8.77
2019-02-09T03:21:02.572Z,7.77
2019-02-09T03:23:31.954Z,7.43
2019-02-09T03:26:01.456Z,8.00
2019-02-09T03:28:31.185Z,7.73
2019-02-09T03:31:00.555Z,7.20
2019-02-09T03:33:29.997Z,7.87
2019-02-09T03:35:59.358Z,8.03
2019-02-09T03:38:28.727Z,7.97
2019-02-09T03:40:58.148Z,7.70
2019-02-09T03:43:27.501Z,8.07
2019-02-09T03:45:56.877Z,8.27
2019-02-09T03:48:26.309Z,7.93
2019-02-09T03:50:55.996Z,8.50
2019-02-09T03:53:25.350Z,7.83
2019-02-09T03:55:54.738Z,8.37
2019-02-09T03:58:24.089Z,8.37
2019-02-09T04:00:55.443Z,8.33
2019-02-09T04:03:24.691Z,7.63
2019-02-09T04:05:54.133Z,9.53
2019-02-09T04:08:23.504Z,8.33
2019-02-09T04:10:52.846Z,8.27
2019-02-09T04:13:22.225Z,8.90
2019-02-09T04:15:51.742Z,8.63
2019-02-09T04:18:21.072Z,7.70
2019-02-09T04:20:50.465Z,7.77
2019-02-09T04:23:19.853Z,8.57
2019-02-09T04:25:49.213Z,8.60
2019-02-09T04:28:18.578Z,8.50
2019-02-09T04:30:48.029Z,9.07
2019-02-09T04:33:17.396Z,11.70
2019-02-09T04:35:46.781Z,13.30
2019-02-09T04:38:16.209Z,11.47
2019-02-09T04:40:45.548Z,11.63
2019-02-09T04:43:14.886Z,11.17
2019-02-09T04:45:44.251Z,11.93
2019-02-09T04:48:13.602Z,12.23
2019-02-09T04:50:43.004Z,13.00
2019-02-09T04:53:12.412Z,13.73
2019-02-09T04:55:41.791Z,14.40
2019-02-09T04:58:11.152Z,13.70
2019-02-09T05:00:40.555Z,13.70
2019-02-09T05:03:09.870Z,14.60
2019-02-09T05:05:39.302Z,14.23
2019-02-09T05:08:08.735Z,14.57
2019-02-09T05:10:38.085Z,14.47
2019-02-09T05:13:07.435Z,14.53
2019-02-09T05:15:37.149Z,14.23
2019-02-09T05:18:06.939Z,14.30
2019-02-09T05:20:36.284Z,16.23
2019-02-09T05:23:05.857Z,17.50
2019-02-09T05:25:35.251Z,17.27
2019-02-09T05:28:04.667Z,17.20
2019-02-09T05:30:34.075Z,16.17
2019-02-09T05:33:03.390Z,17.20
2019-02-09T05:35:32.793Z,18.33
2019-02-09T05:38:02.246Z,18.47
2019-02-09T05:40:31.572Z,18.90
2019-02-09T05:43:00.958Z,17.37
2019-02-09T05:45:31.005Z,17.87
2019-02-09T05:48:00.392Z,18.80
2019-02-09T05:50:29.806Z,18.47
2019-02-09T05:52:59.241Z,18.77
2019-02-09T05:55:28.625Z,19.70
2019-02-09T05:57:58.066Z,19.63
2019-02-09T06:00:32.151Z,19.97
2019-02-09T06:03:01.574Z,19.73
2019-02-09T06:05:30.999Z,19.27
2019-02-09T06:08:00.401Z,19.23
2019-02-09T06:10:29.860Z,20.17
2019-02-09T06:12:59.297Z,21.50
2019-02-09T06:15:29.275Z,22.03
2019-02-09T06:17:58.704Z,20.17
2019-02-09T06:20:28.382Z,21.57
2019-02-09T06:22:58.022Z,19.40
2019-02-09T06:25:27.525Z,21.33
2019-02-09T06:27:56.993Z,19.63
2019-02-09T06:30:27.960Z,19.60
2019-02-09T06:32:57.484Z,19.27
2019-02-09T06:35:26.964Z,19.80
2019-02-09T06:37:56.471Z,18.77
2019-02-09T06:40:25.907Z,20.43
2019-02-09T06:42:55.320Z,20.87
2019-02-09T06:45:25.118Z,20.60
2019-02-09T06:47:56.090Z,18.63
2019-02-09T06:50:28.696Z,18.63
2019-02-09T06:52:58.030Z,18.73
2019-02-09T06:55:27.485Z,20.20
2019-02-09T06:57:56.977Z,19.90
2019-02-09T07:00:26.347Z,19.27
2019-02-09T07:02:55.863Z,19.90
2019-02-09T07:05:25.318Z,18.50
2019-02-09T07:07:54.783Z,19.93
2019-02-09T07:10:24.834Z,18.80
2019-02-09T07:12:54.396Z,19.00
2019-02-09T07:15:25.983Z,18.80
2019-02-09T07:17:55.702Z,18.57
2019-02-09T07:20:25.090Z,17.83
2019-02-09T07:22:54.939Z,16.00
2019-02-09T07:25:24.759Z,16.83
2019-02-09T07:27:54.169Z,15.43
2019-02-09T07:30:25.699Z,15.90
2019-02-09T07:32:55.669Z,17.07
2019-02-09T07:35:25.128Z,16.80
2019-02-09T07:37:54.641Z,16.27
2019-02-09T07:40:24.571Z,14.97
2019-02-09T07:42:54.166Z,15.30
2019-02-09T07:45:25.342Z,14.67
2019-02-09T07:47:54.833Z,14.77
2019-02-09T07:50:25.129Z,15.40
2019-02-09T07:52:54.502Z,14.37
2019-02-09T07:55:24.048Z,16.13
2019-02-09T07:57:53.640Z,15.00
2019-02-09T08:00:24.960Z,14.43
2019-02-09T08:02:54.624Z,15.30
2019-02-09T08:05:26.446Z,15.57
2019-02-09T08:07:55.810Z,16.53
2019-02-09T08:10:27.374Z,21.77
2019-02-09T08:12:57.318Z,16.40
2019-02-09T08:15:28.434Z,14.87
2019-02-09T08:17:57.788Z,14.73
2019-02-09T08:20:28.152Z,14.43
2019-02-09T08:22:58.600Z,15.50
2019-02-09T08:25:29.821Z,14.17
2019-02-09T08:27:59.548Z,16.03
2019-02-09T08:30:40.572Z,14.07
2019-02-09T08:33:10.259Z,13.67
2019-02-09T08:35:40.385Z,15.43
2019-02-09T08:38:11.223Z,16.17
2019-02-09T08:40:40.724Z,14.50
2019-02-09T08:43:10.133Z,14.00
2019-02-09T08:45:39.555Z,13.77
2019-02-09T08:48:08.908Z,15.47
2019-02-09T08:50:44.130Z,16.33
2019-02-09T08:53:13.676Z,16.40
2019-02-09T08:55:43.027Z,17.57
2019-02-09T08:58:12.428Z,18.03
2019-02-09T09:00:41.878Z,16.80
2019-02-09T09:03:11.240Z,18.40
2019-02-09T09:05:40.630Z,17.07
2019-02-09T09:08:10.199Z,17.30
2019-02-09T09:10:39.658Z,16.60
2019-02-09T09:13:09.017Z,16.70
2019-02-09T09:15:43.777Z,19.10
2019-02-09T09:18:13.220Z,17.23
2019-02-09T09:20:45.576Z,17.80
2019-02-09T09:23:14.987Z,16.70
2019-02-09T09:25:44.450Z,16.43
2019-02-09T09:28:14.031Z,17.27
2019-02-09T09:30:43.380Z,18.27
2019-02-09T09:33:12.802Z,51.57
2019-02-09T09:35:42.201Z,16.50
2019-02-09T09:38:11.570Z,15.87
2019-02-09T09:40:41.847Z,17.37
2019-02-09T09:43:11.264Z,18.83
2019-02-09T09:45:41.057Z,15.97
2019-02-09T09:48:12.661Z,15.10
2019-02-09T09:50:42.139Z,16.60
2019-02-09T09:53:11.575Z,17.77
2019-02-09T09:55:41.187Z,17.20
2019-02-09T09:58:10.686Z,15.73
2019-02-09T10:00:40.041Z,16.30
2019-02-09T10:03:10.792Z,16.67
2019-02-09T10:05:40.419Z,17.67
2019-02-09T10:08:11.262Z,17.23
2019-02-09T10:10:52.672Z,17.20
2019-02-09T10:13:22.057Z,19.03
2019-02-09T10:15:51.440Z,16.63
2019-02-09T10:18:20.910Z,16.20
2019-02-09T10:20:50.294Z,17.30
2019-02-09T10:23:19.634Z,17.90
2019-02-09T10:25:49.073Z,18.30
2019-02-09T10:28:18.559Z,18.23
2019-02-09T10:30:47.955Z,17.07
2019-02-09T10:33:17.314Z,17.63
2019-02-09T10:35:46.949Z,17.67
2019-02-09T10:38:16.443Z,17.70
2019-02-09T10:40:45.853Z,17.90
2019-02-09T10:43:15.365Z,17.30
2019-02-09T10:45:44.928Z,18.30
2019-02-09T10:48:16.495Z,17.97
2019-02-09T10:50:46.798Z,18.27
2019-02-09T10:53:16.518Z,17.73
2019-02-09T10:55:45.881Z,18.57
2019-02-09T10:58:15.268Z,16.57
2019-02-09T11:00:57.250Z,17.53
2019-02-09T11:03:26.881Z,19.43
2019-02-09T11:05:56.323Z,18.30
2019-02-09T11:08:25.739Z,17.47
2019-02-09T11:10:55.114Z,17.50
2019-02-09T11:13:24.703Z,18.60
2019-02-09T11:15:54.093Z,18.47
2019-02-09T11:18:24.063Z,18.03
2019-02-09T11:20:53.464Z,19.17
2019-02-09T11:23:22.885Z,21.30
2019-02-09T11:25:52.382Z,20.40
2019-02-09T11:28:21.853Z,21.07
2019-02-09T11:30:51.284Z,19.80
2019-02-09T11:33:20.760Z,20.80
2019-02-09T11:35:50.694Z,18.97
2019-02-09T11:38:20.111Z,18.93
2019-02-09T11:40:52.130Z,18.93
2019-02-09T11:43:21.537Z,19.63
2019-02-09T11:45:50.937Z,18.37
2019-02-09T11:48:20.686Z,18.87
2019-02-09T11:50:50.105Z,19.13
2019-02-09T11:53:19.514Z,20.60
2019-02-09T11:55:49.804Z,20.40
2019-02-09T11:58:19.259Z,20.43
2019-02-09T12:00:51.336Z,21.17
2019-02-09T12:03:20.723Z,20.57
2019-02-09T12:05:50.070Z,20.60
2019-02-09T12:08:19.455Z,21.17
2019-02-09T12:10:49.234Z,20.47
2019-02-09T12:13:18.646Z,20.90
2019-02-09T12:15:48.071Z,21.70
2019-02-09T12:18:17.449Z,22.23
2019-02-09T12:20:46.915Z,21.10
2019-02-09T12:23:16.323Z,21.40
2019-02-09T12:25:45.722Z,22.27
2019-02-09T12:28:15.210Z,22.70
2019-02-09T12:30:44.667Z,22.03
2019-02-09T12:33:22.580Z,21.57
2019-02-09T12:35:45.464Z,20.53
2019-02-09T12:38:14.882Z,21.27
2019-02-09T12:40:44.278Z,20.20
2019-02-09T12:43:13.632Z,19.50
2019-02-09T12:45:43.596Z,18.97
2019-02-09T12:48:15.803Z,19.53
2019-02-09T12:50:46.159Z,19.70
2019-02-09T12:53:16.867Z,20.90
2019-02-09T12:55:47.309Z,22.90
2019-02-09T12:58:17.560Z,22.47
2019-02-09T13:00:46.936Z,20.80
2019-02-09T13:03:18.969Z,21.50
2019-02-09T13:05:48.257Z,21.83
2019-02-09T13:08:17.893Z,20.53
2019-02-09T13:10:47.282Z,21.57
2019-02-09T13:13:17.638Z,20.87
2019-02-09T13:15:47.027Z,21.30
2019-02-09T13:18:16.521Z,24.00
2019-02-09T13:20:45.895Z,22.77
2019-02-09T13:23:15.681Z,23.93
2019-02-09T13:25:45.129Z,24.30
2019-02-09T13:28:15.459Z,24.30
2019-02-09T13:30:44.995Z,21.70
2019-02-09T13:33:14.795Z,23.27
2019-02-09T13:35:44.780Z,23.00
2019-02-09T13:38:14.193Z,23.00
2019-02-09T13:40:43.766Z,25.07
2019-02-09T13:43:13.294Z,20.97
2019-02-09T13:45:48.275Z,22.30
2019-02-09T13:48:17.727Z,21.87
2019-02-09T13:50:47.107Z,22.03
2019-02-09T13:53:16.542Z,21.50
2019-02-09T13:55:46.292Z,22.07
2019-02-09T13:58:15.828Z,22.07
2019-02-09T14:00:45.230Z,20.77
2019-02-09T14:03:14.674Z,19.93
2019-02-09T14:05:43.981Z,21.67
2019-02-09T14:08:13.487Z,20.77
2019-02-09T14:10:42.975Z,23.57
2019-02-09T14:13:14.657Z,21.27
2019-02-09T14:15:43.538Z,21.70
2019-02-09T14:18:13.174Z,19.70
2019-02-09T14:20:42.647Z,20.83
2019-02-09T14:23:12.129Z,22.00
2019-02-09T14:25:41.551Z,20.03
2019-02-09T14:28:11.168Z,20.03
2019-02-09T14:30:40.887Z,21.70
2019-02-09T14:33:11.032Z,21.13
2019-02-09T14:35:41.452Z,21.50
2019-02-09T14:38:11.573Z,20.80
2019-02-09T14:40:40.950Z,19.07
2019-02-09T14:43:10.915Z,19.60
2019-02-09T14:45:45.583Z,21.27
2019-02-09T14:48:15.104Z,19.67
2019-02-09T14:50:45.162Z,21.87
2019-02-09T14:53:45.537Z,21.13
2019-02-09T14:56:33.941Z,20.73
2019-02-09T14:59:11.910Z,20.57
2019-02-09T15:01:41.607Z,20.87
2019-02-09T15:04:11.128Z,19.80
2019-02-09T15:06:40.547Z,19.30
2019-02-09T15:09:10.769Z,18.97
2019-02-09T15:11:40.605Z,18.93
2019-02-09T15:14:10.019Z,16.97
2019-02-09T15:16:52.076Z,19.57
2019-02-09T15:19:28.032Z,18.90
2019-02-09T15:21:57.826Z,20.73
2019-02-09T15:24:27.225Z,20.20
2019-02-09T15:26:56.676Z,19.10
2019-02-09T15:29:26.293Z,18.47
2019-02-09T15:31:55.885Z,19.00
2019-02-09T15:34:25.310Z,18.70
2019-02-09T15:36:54.647Z,17.73
2019-02-09T15:39:24.053Z,18.63
2019-02-09T15:41:53.454Z,18.10
2019-02-09T15:44:22.862Z,18.63
2019-02-09T15:46:52.332Z,17.73
2019-02-09T15:49:21.704Z,18.80
2019-02-09T15:51:51.077Z,19.50
2019-02-09T15:54:20.487Z,22.53
2019-02-09T15:56:49.968Z,21.90
2019-02-09T15:59:19.409Z,19.47
2019-02-09T16:01:48.871Z,21.07
2019-02-09T16:04:18.352Z,22.77
2019-02-09T16:06:47.686Z,21.00
2019-02-09T16:09:17.127Z,20.80
2019-02-09T16:11:46.437Z,21.63
2019-02-09T16:14:15.775Z,25.07
2019-02-09T16:16:45.252Z,24.63
2019-02-09T16:19:14.687Z,23.33
2019-02-09T16:21:44.135Z,25.23
2019-02-09T16:24:13.535Z,38.30
2019-02-09T16:26:42.898Z,25.80
2019-02-09T16:29:12.525Z,26.27
2019-02-09T16:31:41.974Z,26.40
2019-02-09T16:34:11.377Z,27.37
2019-02-09T16:36:40.812Z,26.80
2019-02-09T16:39:11.511Z,26.37
2019-02-09T16:41:40.945Z,26.30
2019-02-09T16:44:10.323Z,25.47
2019-02-09T16:46:39.656Z,27.07
2019-02-09T16:49:09.061Z,28.53
2019-02-09T16:51:38.520Z,30.97
2019-02-09T16:54:14.140Z,33.00
2019-02-09T16:56:43.850Z,33.27
2019-02-09T16:59:13.388Z,32.13
2019-02-09T17:01:44.152Z,30.40
2019-02-09T17:04:15.162Z,31.90
2019-02-09T17:06:44.857Z,37.83
2019-02-09T17:09:14.698Z,36.20
2019-02-09T17:11:44.637Z,35.17
2019-02-09T17:14:14.263Z,40.63
2019-02-09T17:16:43.991Z,41.40
2019-02-09T17:19:13.762Z,46.97
2019-02-09T17:21:43.675Z,43.63
2019-02-09T17:24:13.510Z,48.73
2019-02-09T17:26:43.541Z,42.03
2019-02-09T17:29:34.759Z,40.00
2019-02-09T17:32:09.119Z,42.47
2019-02-09T17:34:51.013Z,41.50
2019-02-09T17:37:38.359Z,52.60
2019-02-09T17:40:10.800Z,50.97
2019-02-09T17:42:53.623Z,52.47
2019-02-09T17:45:30.217Z,61.80
2019-02-09T17:47:59.850Z,61.33
2019-02-09T17:50:29.202Z,59.97
2019-02-09T17:53:00.292Z,51.73
2019-02-09T17:55:29.925Z,46.63
2019-02-09T17:57:59.390Z,56.10
2019-02-09T18:00:38.454Z,50.17
2019-02-09T18:03:09.040Z,55.23
2019-02-09T18:05:39.063Z,58.27
2019-02-09T18:08:12.449Z,53.73
2019-02-09T18:10:46.473Z,56.50
2019-02-09T18:13:18.264Z,54.37
2019-02-09T18:15:47.652Z,59.30
2019-02-09T18:18:18.288Z,62.33
2019-02-09T18:20:47.846Z,69.10
2019-02-09T18:23:17.183Z,63.17
2019-02-09T18:25:52.621Z,66.57
2019-02-09T18:28:22.156Z,72.37
2019-02-09T18:30:51.586Z,99.77
2019-02-09T18:33:21.647Z,95.63
2019-02-09T18:35:51.482Z,99.83
2019-02-09T18:38:20.922Z,88.47
2019-02-09T18:40:50.678Z,87.40
2019-02-09T18:43:20.136Z,78.90
2019-02-09T18:45:49.508Z,75.30
2019-02-09T18:48:19.095Z,72.47
2019-02-09T18:50:48.579Z,64.70
2019-02-09T18:53:17.966Z,61.20
2019-02-09T18:55:48.898Z,56.03
2019-02-09T18:58:19.803Z,58.73
2019-02-09T19:00:49.327Z,54.97
2019-02-09T19:03:20.818Z,51.47
2019-02-09T19:05:50.535Z,55.00
2019-02-09T19:08:19.989Z,61.63
2019-02-09T19:10:49.357Z,66.53
2019-02-09T19:13:18.789Z,64.30
2019-02-09T19:15:48.175Z,58.67
2019-02-09T19:18:17.684Z,58.50
2019-02-09T19:20:50.723Z,58.37
2019-02-09T19:23:20.182Z,48.90
2019-02-09T19:25:51.456Z,49.70
2019-02-09T19:28:20.792Z,56.00
2019-02-09T19:30:50.346Z,58.27
2019-02-09T19:33:20.310Z,57.20
2019-02-09T19:35:49.703Z,61.90
2019-02-09T19:38:19.126Z,69.47
2019-02-09T19:40:48.538Z,66.50
2019-02-09T19:43:17.912Z,76.30
2019-02-09T19:45:47.558Z,73.13
2019-02-09T19:48:17.122Z,86.27
2019-02-09T19:50:46.558Z,78.53
2019-02-09T19:53:15.923Z,85.93
2019-02-09T19:55:45.354Z,87.00
2019-02-09T19:58:14.818Z,100.87
2019-02-09T20:00:44.939Z,97.57
2019-02-09T20:03:14.384Z,108.53
2019-02-09T20:05:43.726Z,186.00
2019-02-09T20:08:13.528Z,196.17
2019-02-09T20:10:43.894Z,218.20
2019-02-09T20:13:13.507Z,130.70
2019-02-09T20:15:42.989Z,130.63
2019-02-09T20:18:12.528Z,151.20
2019-02-09T20:20:47.454Z,154.97
2019-02-09T20:23:13.293Z,181.93
2019-02-09T20:25:42.690Z,185.97
2019-02-09T20:28:12.131Z,155.10
2019-02-09T20:30:42.064Z,153.80
2019-02-09T20:33:11.514Z,150.20
2019-02-09T20:35:40.985Z,148.50
2019-02-09T20:38:10.784Z,149.03
2019-02-09T20:40:42.720Z,174.83
2019-02-09T20:43:13.766Z,188.70
2019-02-09T20:45:43.084Z,189.63
2019-02-09T20:48:12.731Z,191.80
2019-02-09T20:50:42.170Z,185.03
2019-02-09T20:53:12.282Z,177.33
2019-02-09T20:55:41.674Z,197.87
2019-02-09T20:58:12.705Z,178.67
2019-02-09T21:00:42.277Z,187.50
2019-02-09T21:03:11.606Z,225.20
2019-02-09T21:05:41.035Z,172.47
2019-02-09T21:08:10.786Z,146.63
2019-02-09T21:10:40.727Z,123.60
2019-02-09T21:13:10.233Z,131.03
2019-02-09T21:15:40.055Z,113.43
2019-02-09T21:18:09.524Z,112.37
2019-02-09T21:20:39.307Z,137.07
2019-02-09T21:23:09.012Z,156.93
2019-02-09T21:25:40.688Z,148.63
2019-02-09T21:28:16.609Z,140.30
2019-02-09T21:30:46.660Z,153.67
2019-02-09T21:33:18.638Z,155.90
2019-02-09T21:35:48.076Z,158.30
2019-02-09T21:38:17.566Z,187.30
2019-02-09T21:40:47.147Z,168.70
2019-02-09T21:43:16.814Z,171.93
2019-02-09T21:45:46.521Z,187.50
2019-02-09T21:48:16.611Z,175.33
2019-02-09T21:50:46.506Z,190.03
2019-02-09T21:53:16.249Z,179.80
2019-02-09T21:55:45.737Z,176.03
2019-02-09T21:58:15.385Z,182.97
2019-02-09T22:00:45.129Z,152.50
2019-02-09T22:03:15.366Z,199.67
2019-02-09T22:05:51.839Z,153.63
2019-02-09T22:08:19.569Z,115.03
2019-02-09T22:10:48.610Z,120.97
2019-02-09T22:13:18.076Z,90.33
2019-02-09T22:15:47.545Z,98.80
2019-02-09T22:18:16.989Z,112.13
2019-02-09T22:20:52.573Z,108.80
2019-02-09T22:23:17.574Z,112.13
2019-02-09T22:25:47.043Z,73.47
2019-02-09T22:28:16.464Z,98.07
2019-02-09T22:30:45.965Z,124.03
2019-02-09T22:33:24.051Z,106.47
2019-02-09T22:35:46.820Z,112.60
2019-02-09T22:38:16.164Z,110.03
2019-02-09T22:40:45.586Z,93.77
2019-02-09T22:43:15.002Z,78.87
2019-02-09T22:45:44.419Z,71.50
2019-02-09T22:48:13.787Z,60.20
2019-02-09T22:50:45.057Z,61.00
2019-02-09T22:53:14.815Z,56.33
2019-02-09T22:55:44.246Z,59.70
2019-02-09T22:58:15.484Z,54.97
2019-02-09T23:01:21.243Z,56.67
2019-02-09T23:04:03.136Z,63.10
2019-02-09T23:06:54.506Z,72.60
2019-02-09T23:09:26.125Z,78.63
2019-02-09T23:11:55.500Z,77.40
2019-02-09T23:14:24.851Z,64.00
2019-02-09T23:16:54.297Z,81.30
2019-02-09T23:19:23.730Z,75.17
2019-02-09T23:21:53.196Z,77.47
2019-02-09T23:24:22.663Z,70.40
2019-02-09T23:26:51.970Z,82.23
2019-02-09T23:29:21.288Z,82.50
2019-02-09T23:31:50.686Z,75.43
2019-02-09T23:34:20.164Z,77.27
2019-02-09T23:36:49.693Z,71.93
2019-02-09T23:39:19.074Z,69.83
2019-02-09T23:41:48.477Z,67.33
2019-02-09T23:44:17.781Z,55.17
2019-02-09T23:46:47.178Z,59.93
2019-02-09T23:49:16.552Z,61.27
2019-02-09T23:51:45.909Z,59.43
2019-02-09T23:54:15.265Z,58.80
2019-02-09T23:56:44.610Z,58.00
2019-02-09T23:59:13.935Z,60.27
